Time;durP1;ratioP1;P1;durP2;ratioP2;P2;SDS_P1;SDS_P2;PMS_P1;PMS_P2;Temp;Humidity;BMP_temperature;BMP_pressure;BME280_temperature;BME280_humidity;BME280_pressure;Samples;Min_cycle;Max_cycle;Signal;HPM_P1;HPM_P2
2023/05/26 00:01:14;;;;;;;5.70;2.72;;;;;;;12.15;80.99;94858.47;5026161;28;20466;-73
2023/05/26 00:03:44;;;;;;;4.28;2.60;;;;;;;12.19;80.71;94870.25;5017725;28;20534;-73
2023/05/26 00:06:11;;;;;;;2.58;2.10;;;;;;;12.36;80.66;94867.94;5035433;28;20079;-73
2023/05/26 00:08:37;;;;;;;3.45;2.35;;;;;;;12.32;80.91;94875.22;5034952;28;20035;-73
2023/05/26 00:11:03;;;;;;;3.13;2.22;;;;;;;12.11;81.62;94866.69;5032553;28;20427;-73
2023/05/26 00:13:28;;;;;;;2.97;2.05;;;;;;;12.19;81.98;94870.25;5048930;28;20025;-73
2023/05/26 00:15:54;;;;;;;2.90;2.10;;;;;;;12.21;81.83;94872.72;5031471;28;20087;-73
2023/05/26 00:18:19;;;;;;;3.05;2.05;;;;;;;12.21;81.77;94864.91;5031154;28;20034;-73
2023/05/26 00:20:45;;;;;;;2.95;2.40;;;;;;;12.18;81.76;94847.78;5050902;28;20037;-73
2023/05/26 00:23:10;;;;;;;3.40;2.13;;;;;;;12.10;81.76;94859.84;5034405;28;20025;-73
2023/05/26 00:25:36;;;;;;;2.88;1.95;;;;;;;12.06;81.60;94860.09;5034655;28;20033;-73
2023/05/26 00:28:01;;;;;;;2.92;1.80;;;;;;;11.99;82.01;94864.19;5030614;28;20032;-73
2023/05/26 00:30:28;;;;;;;2.70;1.70;;;;;;;11.98;81.64;94852.16;5031064;28;20044;-73
2023/05/26 00:32:53;;;;;;;2.58;1.75;;;;;;;12.16;81.14;94849.69;5031369;28;20147;-74
2023/05/26 00:35:19;;;;;;;2.83;2.22;;;;;;;11.99;81.57;94847.75;5032789;28;20471;-73
2023/05/26 00:37:44;;;;;;;3.58;2.00;;;;;;;12.07;81.40;94861.75;5031149;28;20040;-73
2023/05/26 00:40:10;;;;;;;3.53;2.20;;;;;;;12.09;81.15;94861.63;5032070;28;20420;-73
2023/05/26 00:42:36;;;;;;;3.00;2.00;;;;;;;12.08;81.07;94868.59;5014332;28;20029;-73
2023/05/26 00:45:02;;;;;;;2.65;1.80;;;;;;;11.89;81.32;94863.34;5032519;28;20133;-73
2023/05/26 00:47:27;;;;;;;2.47;1.60;;;;;;;11.93;81.00;94851.72;5046543;28;20554;-73
2023/05/26 00:49:53;;;;;;;3.30;1.83;;;;;;;11.95;81.32;94857.63;5034302;28;20102;-73
2023/05/26 00:52:19;;;;;;;4.18;1.65;;;;;;;11.83;81.29;94854.25;5033979;28;20052;-73
2023/05/26 00:54:44;;;;;;;2.28;1.60;;;;;;;11.94;81.33;94863.78;5026922;28;20045;-73
2023/05/26 00:57:10;;;;;;;6.70;1.90;;;;;;;11.84;81.23;94862.91;5050510;28;20040;-73
2023/05/26 00:59:35;;;;;;;4.28;1.90;;;;;;;11.94;81.24;94865.56;5033744;28;20025;-73
2023/05/26 01:02:01;;;;;;;5.93;1.77;;;;;;;11.94;80.98;94874.19;5049972;28;20041;-73
2023/05/26 01:04:27;;;;;;;2.47;1.80;;;;;;;11.78;81.13;94860.81;5026647;28;20056;-73
2023/05/26 01:06:52;;;;;;;2.50;1.80;;;;;;;11.82;81.08;94864.81;5031574;28;20025;-73
2023/05/26 01:09:18;;;;;;;2.75;1.67;;;;;;;11.83;81.30;94858.66;5013774;28;20388;-73
2023/05/26 01:12:31;;;;;;;2.53;1.45;;;;;;;11.81;81.06;94861.41;5013994;28;20040;-73
2023/05/26 01:15:00;;;;;;;2.60;1.65;;;;;;;11.89;80.63;94863.34;5047966;28;20613;-73
2023/05/26 01:17:32;;;;;;;3.10;1.90;;;;;;;11.78;80.93;94845.19;5048986;28;20032;-73
2023/05/26 01:20:22;;;;;;;3.10;1.83;;;;;;;11.79;80.80;94862.50;5016745;28;20056;-73
2023/05/26 01:22:48;;;;;;;2.42;1.70;;;;;;;11.85;80.48;94868.00;5024388;28;20556;-73
2023/05/26 01:25:22;;;;;;;2.80;1.50;;;;;;;11.92;80.03;94865.69;5031918;28;20123;-73
2023/05/26 01:28:16;;;;;;;3.35;1.75;;;;;;;11.71;80.19;94859.72;5031261;28;20029;-73
2023/05/26 01:30:45;;;;;;;2.30;1.33;;;;;;;11.74;80.40;94867.25;5014553;28;20042;-73
2023/05/26 01:33:10;;;;;;;3.60;2.20;;;;;;;11.79;80.03;94857.28;5013047;28;20029;-73
2023/05/26 01:35:36;;;;;;;2.22;1.52;;;;;;;11.62;79.93;94856.97;4997213;28;20045;-73
2023/05/26 01:38:01;;;;;;;2.30;1.40;;;;;;;11.59;80.00;94841.63;5029831;28;20025;-73
2023/05/26 01:40:27;;;;;;;3.60;1.60;;;;;;;11.61;80.20;94857.91;5030049;28;20034;-73
2023/05/26 01:43:03;;;;;;;3.13;1.48;;;;;;;11.72;79.93;94861.34;4997124;28;20657;-73
2023/05/26 01:45:33;;;;;;;3.05;1.30;;;;;;;11.74;80.04;94851.66;5029917;28;20034;-73
2023/05/26 01:47:59;;;;;;;3.53;1.38;;;;;;;11.69;80.04;94854.63;4997311;28;20025;-73
2023/05/26 01:50:38;;;;;;;3.20;1.67;;;;;;;11.70;80.32;94858.91;5042093;28;20123;-73
2023/05/26 01:53:06;;;;;;;4.63;1.60;;;;;;;11.71;79.98;94862.31;5033396;28;20068;-73
2023/05/26 01:55:32;;;;;;;4.20;1.40;;;;;;;11.41;80.53;94866.59;5034904;28;20506;-73
2023/05/26 01:57:57;;;;;;;3.63;1.70;;;;;;;11.39;80.48;94858.09;5013001;28;20033;-73
2023/05/26 02:00:26;;;;;;;2.97;1.65;;;;;;;11.41;80.75;94874.41;5033057;28;20033;-72
2023/05/26 02:02:51;;;;;;;2.20;1.38;;;;;;;11.26;80.87;94858.31;5050582;28;20032;-73
2023/05/26 02:05:17;;;;;;;3.42;1.42;;;;;;;11.24;80.79;94854.22;5051240;28;20372;-73
2023/05/26 02:07:42;;;;;;;3.10;1.65;;;;;;;11.46;80.69;94867.03;5026744;28;20028;-73
2023/05/26 02:10:08;;;;;;;3.70;1.70;;;;;;;11.57;80.53;94877.34;5029441;28;20447;-73
2023/05/26 02:12:33;;;;;;;5.68;1.85;;;;;;;11.45;80.58;94868.00;5032735;28;20030;-73
2023/05/26 02:14:59;;;;;;;2.47;1.55;;;;;;;11.52;79.75;94879.50;5033915;28;20033;-73
2023/05/26 02:17:24;;;;;;;2.30;1.50;;;;;;;11.47;79.10;94866.06;5028313;28;20102;-73
2023/05/26 02:19:50;;;;;;;5.00;1.67;;;;;;;11.57;78.78;94874.75;5037210;28;20033;-73
2023/05/26 02:22:15;;;;;;;2.60;1.58;;;;;;;11.56;78.57;94873.09;5054624;28;20029;-73
2023/05/26 02:24:41;;;;;;;3.50;1.63;;;;;;;11.39;78.97;94881.50;5055112;28;20471;-73
2023/05/26 02:27:06;;;;;;;3.90;1.70;;;;;;;11.26;80.01;94873.94;5036348;28;20514;-73
2023/05/26 02:29:32;;;;;;;2.08;1.55;;;;;;;11.35;80.14;94880.94;5034994;28;20041;-73
2023/05/26 02:31:57;;;;;;;2.78;1.60;;;;;;;11.38;79.52;94877.25;5016926;28;20159;-74
2023/05/26 02:34:23;;;;;;;4.40;1.90;;;;;;;11.31;79.31;94887.38;5035158;28;20037;-73
2023/05/26 02:36:49;;;;;;;2.88;2.00;;;;;;;11.31;79.66;94889.13;5053190;28;20029;-73
2023/05/26 02:39:15;;;;;;;4.88;2.03;;;;;;;11.23;79.62;94875.94;5036768;28;20037;-73
2023/05/26 02:41:41;;;;;;;3.75;1.88;;;;;;;11.16;80.26;94876.47;5052813;28;20052;-73
2023/05/26 02:44:06;;;;;;;2.80;1.58;;;;;;;11.28;79.97;94874.63;5044926;28;20038;-73
2023/05/26 02:46:32;;;;;;;3.13;1.55;;;;;;;11.17;80.36;94880.72;5033337;28;20021;-74
2023/05/26 02:49:00;;;;;;;3.63;1.80;;;;;;;11.13;80.36;94881.09;5034404;28;20030;-73
2023/05/26 02:51:26;;;;;;;2.75;1.65;;;;;;;11.04;80.91;94879.28;5033083;28;20567;-73
2023/05/26 02:53:52;;;;;;;2.95;1.90;;;;;;;11.08;80.85;94860.69;5045124;28;20029;-73
2023/05/26 02:56:17;;;;;;;2.95;1.83;;;;;;;11.11;80.89;94870.00;5016473;28;20111;-73
2023/05/26 02:58:43;;;;;;;2.85;1.98;;;;;;;11.13;81.29;94876.72;5016481;28;20044;-73
2023/05/26 03:01:08;;;;;;;4.55;1.70;;;;;;;10.99;81.72;94864.06;5032809;28;20025;-74
2023/05/26 03:03:35;;;;;;;2.63;2.03;;;;;;;11.15;81.97;94879.22;5017571;28;20533;-74
2023/05/26 03:06:02;;;;;;;3.67;1.92;;;;;;;11.26;81.41;94876.53;5032963;28;20021;-73
2023/05/26 03:08:27;;;;;;;6.78;2.80;;;;;;;11.28;80.68;94886.78;5014155;28;20083;-73
2023/05/26 03:10:52;;;;;;;5.68;2.70;;;;;;;11.13;80.86;94894.94;5031475;28;20057;-74
2023/05/26 03:13:18;;;;;;;4.97;2.78;;;;;;;10.97;81.67;94891.94;5032791;28;20033;-74
2023/05/26 03:15:47;;;;;;;4.85;2.30;;;;;;;11.07;81.57;94892.84;5031516;28;20182;-73
2023/05/26 03:18:13;;;;;;;3.75;2.10;;;;;;;11.12;81.44;94901.09;5033635;28;20032;-73
2023/05/26 03:20:39;;;;;;;3.63;2.42;;;;;;;11.23;81.07;94907.16;5033679;28;20031;-74
2023/05/26 03:23:04;;;;;;;3.92;2.33;;;;;;;11.37;80.67;94909.44;5014026;28;20041;-74
2023/05/26 03:25:30;;;;;;;5.15;2.25;;;;;;;11.15;80.91;94900.81;4999628;28;20028;-73
2023/05/26 03:27:55;;;;;;;3.13;2.30;;;;;;;11.05;81.71;94910.34;5032240;28;20083;-73
2023/05/26 03:30:21;;;;;;;4.70;2.00;;;;;;;11.19;81.57;94917.00;4999577;28;20029;-74
2023/05/26 03:32:46;;;;;;;3.85;2.15;;;;;;;11.25;80.85;94915.66;5015710;28;20029;-73
2023/05/26 03:35:12;;;;;;;2.90;2.05;;;;;;;11.21;81.09;94925.50;5015784;28;20040;-73
2023/05/26 03:37:37;;;;;;;3.40;2.15;;;;;;;11.19;80.83;94924.78;5015689;28;20032;-73
2023/05/26 03:40:05;;;;;;;3.50;1.95;;;;;;;11.23;81.61;94914.94;5032094;28;20125;-72
2023/05/26 03:42:30;;;;;;;4.07;2.20;;;;;;;11.07;81.52;94903.25;5015796;28;20053;-73
2023/05/26 03:44:56;;;;;;;4.43;2.30;;;;;;;11.32;81.78;94911.59;5032196;28;20075;-73
2023/05/26 03:47:21;;;;;;;3.25;2.22;;;;;;;11.39;81.27;94886.69;5018425;28;20415;-73
2023/05/26 03:49:46;;;;;;;2.65;1.77;;;;;;;11.65;80.19;94901.88;5033529;28;20034;-73
2023/05/26 03:52:12;;;;;;;3.30;2.13;;;;;;;11.65;80.60;94907.91;5031866;28;20029;-73
2023/05/26 03:54:37;;;;;;;3.03;2.35;;;;;;;11.76;80.70;94896.59;5015514;28;20048;-74
2023/05/26 03:57:03;;;;;;;2.60;1.95;;;;;;;11.74;80.94;94906.28;5031605;28;20103;-73
2023/05/26 03:59:28;;;;;;;2.92;2.20;;;;;;;11.77;81.01;94895.63;5031935;28;20033;-73
2023/05/26 04:01:55;;;;;;;3.22;2.20;;;;;;;12.20;80.00;94912.72;5032788;28;20034;-73
2023/05/26 04:04:20;;;;;;;7.38;3.13;;;;;;;12.05;79.69;94907.09;5033121;28;20033;-73
2023/05/26 04:06:46;;;;;;;8.48;3.00;;;;;;;12.94;77.45;94899.19;5032761;28;20030;-73
2023/05/26 04:09:11;;;;;;;4.05;2.72;;;;;;;13.72;74.30;94905.03;5031492;28;20037;-73
2023/05/26 04:11:37;;;;;;;7.97;3.30;;;;;;;14.36;71.39;94899.91;5031474;28;20087;-74
2023/05/26 04:14:02;;;;;;;4.15;2.60;;;;;;;15.11;69.67;94893.38;5014977;28;20039;-73
2023/05/26 04:16:27;;;;;;;5.05;2.80;;;;;;;15.79;66.64;94884.78;5031516;28;20041;-73
2023/05/26 04:18:53;;;;;;;4.53;2.60;;;;;;;16.59;64.37;94889.63;5031401;28;20029;-73
2023/05/26 04:21:18;;;;;;;5.72;2.30;;;;;;;17.10;63.75;94882.44;5031531;28;20029;-73
2023/05/26 04:23:47;;;;;;;2.63;2.00;;;;;;;17.53;61.80;94884.84;5031396;28;20037;-73
2023/05/26 04:26:13;;;;;;;3.42;2.00;;;;;;;17.85;60.83;94879.50;5032381;28;20108;-73
2023/05/26 04:28:38;;;;;;;7.18;2.10;;;;;;;18.39;60.58;94897.19;5018162;28;20550;-73
2023/05/26 04:31:04;;;;;;;5.80;1.90;;;;;;;18.86;58.62;94887.53;5018000;28;20044;-74
2023/05/26 04:33:30;;;;;;;3.17;1.85;;;;;;;18.98;58.36;94888.75;5031287;28;20037;-73
2023/05/26 04:35:56;;;;;;;3.10;1.90;;;;;;;19.14;58.11;94896.53;5030090;28;20515;-72
2023/05/26 04:38:21;;;;;;;4.60;1.95;;;;;;;19.51;57.75;94884.34;5034366;28;20029;-72
2023/05/26 04:40:48;;;;;;;4.15;2.78;;;;;;;18.83;57.80;94893.13;5044196;28;20029;-72
2023/05/26 04:43:14;;;;;;;4.28;2.40;;;;;;;17.35;62.23;94906.03;5034279;28;20419;-72
2023/05/26 04:45:43;;;;;;;5.18;2.90;;;;;;;17.43;63.41;94914.72;5039216;28;20116;-72
2023/05/26 04:48:08;;;;;;;4.22;3.20;;;;;;;17.38;61.76;94910.94;5014005;28;20388;-72
2023/05/26 04:50:38;;;;;;;3.97;2.38;;;;;;;17.09;63.53;94898.34;5046362;28;20115;-71
2023/05/26 04:53:05;;;;;;;3.65;2.53;;;;;;;17.18;63.78;94916.56;5030924;28;20036;-72
2023/05/26 04:55:30;;;;;;;4.07;3.10;;;;;;;17.01;63.87;94895.75;5039757;28;20116;-72
2023/05/26 04:57:56;;;;;;;3.60;2.30;;;;;;;17.03;64.90;94894.59;5011557;28;20189;-72
2023/05/26 05:00:21;;;;;;;6.97;5.45;;;;;;;16.95;63.91;94907.72;5016232;28;20016;-70
2023/05/26 05:02:47;;;;;;;12.45;8.60;;;;;;;16.74;63.64;94906.38;5038803;28;20036;-71
2023/05/26 05:05:12;;;;;;;8.90;6.25;;;;;;;16.79;63.79;94905.88;5041183;28;20091;-71
2023/05/26 05:07:38;;;;;;;5.57;3.92;;;;;;;16.59;63.92;94888.78;5047404;28;20029;-72
2023/05/26 05:10:04;;;;;;;5.28;3.70;;;;;;;17.09;62.31;94900.97;5031859;28;20108;-72
2023/05/26 05:12:29;;;;;;;5.25;4.10;;;;;;;17.25;63.28;94893.09;5030446;28;20029;-72
2023/05/26 05:14:55;;;;;;;9.43;4.10;;;;;;;16.88;63.13;94891.81;5012709;28;20033;-72
2023/05/26 05:17:35;;;;;;;10.52;8.02;;;;;;;16.80;63.89;94899.69;5029495;28;20022;-72
2023/05/26 05:20:00;;;;;;;5.10;3.75;;;;;;;16.76;64.14;94898.31;5012553;28;20056;-72
2023/05/26 05:22:26;;;;;;;15.52;14.02;;;;;;;16.73;64.56;94894.22;5045969;28;20519;-72
2023/05/26 05:24:51;;;;;;;16.67;15.13;;;;;;;16.57;64.68;94893.38;5028724;28;20034;-72
2023/05/26 05:27:17;;;;;;;5.38;4.60;;;;;;;16.63;64.42;94887.47;5029069;28;20029;-72
2023/05/26 05:29:42;;;;;;;5.88;5.30;;;;;;;16.95;65.49;94892.78;5031040;28;20040;-72
2023/05/26 05:32:07;;;;;;;6.03;3.40;;;;;;;17.13;63.73;94897.88;5029947;28;20487;-71
2023/05/26 05:34:33;;;;;;;5.85;5.30;;;;;;;16.76;64.79;94900.94;5013824;28;20037;-72
2023/05/26 05:36:58;;;;;;;4.70;4.20;;;;;;;16.37;65.16;94888.41;5031113;28;20033;-72
2023/05/26 05:39:24;;;;;;;4.88;4.18;;;;;;;16.50;65.11;94898.47;5031528;28;20045;-72
2023/05/26 05:41:49;;;;;;;5.45;4.75;;;;;;;16.68;65.77;94912.22;5029824;28;20025;-72
2023/05/26 05:44:15;;;;;;;7.88;3.83;;;;;;;16.83;64.87;94891.47;5031386;28;20423;-72
2023/05/26 05:46:40;;;;;;;5.65;3.50;;;;;;;16.86;64.96;94906.06;5030829;28;20025;-72
2023/05/26 05:49:06;;;;;;;5.35;4.07;;;;;;;16.87;65.19;94905.09;5043165;28;20021;-72
2023/05/26 05:51:31;;;;;;;5.30;4.03;;;;;;;16.93;65.21;94907.84;5033049;28;20025;-72
2023/05/26 05:53:57;;;;;;;7.13;3.72;;;;;;;16.95;64.36;94899.84;5033119;28;20028;-72
2023/05/26 05:56:22;;;;;;;8.15;3.85;;;;;;;17.16;64.54;94907.19;5049658;28;20399;-72
2023/05/26 05:58:48;;;;;;;10.95;4.88;;;;;;;17.18;64.09;94902.63;5050904;28;20380;-72
2023/05/26 06:01:13;;;;;;;6.25;4.05;;;;;;;16.99;65.33;94909.00;5041098;28;20454;-72
2023/05/26 06:03:39;;;;;;;5.47;4.05;;;;;;;17.66;64.16;94908.75;5047727;28;20040;-72
2023/05/26 06:06:05;;;;;;;4.25;3.83;;;;;;;17.57;63.05;94902.72;5029348;28;20034;-72
2023/05/26 06:08:30;;;;;;;9.05;6.00;;;;;;;17.40;63.21;94901.13;5033693;28;20029;-72
2023/05/26 06:10:56;;;;;;;8.82;5.63;;;;;;;17.47;62.95;94891.59;5044609;28;20511;-72
2023/05/26 06:13:21;;;;;;;7.57;4.05;;;;;;;17.54;62.87;94905.69;5016641;28;20098;-72
2023/05/26 06:15:47;;;;;;;5.20;3.80;;;;;;;17.75;62.17;94899.91;5042949;28;20596;-72
2023/05/26 06:18:12;;;;;;;4.78;3.60;;;;;;;17.75;62.00;94905.16;5049397;28;20029;-71
2023/05/26 06:20:38;;;;;;;4.63;3.70;;;;;;;17.80;60.71;94910.75;5043521;28;20029;-71
2023/05/26 06:23:03;;;;;;;5.72;3.38;;;;;;;18.03;61.90;94908.19;4996471;28;20033;-72
2023/05/26 06:25:29;;;;;;;4.35;3.50;;;;;;;17.40;63.41;94911.63;5029476;28;20029;-71
2023/05/26 06:27:54;;;;;;;7.05;5.05;;;;;;;17.73;62.57;94908.94;5029502;28;20033;-72
2023/05/26 06:30:20;;;;;;;6.97;4.30;;;;;;;17.43;63.05;94880.59;5013047;28;20049;-71
2023/05/26 06:32:45;;;;;;;8.05;5.18;;;;;;;17.76;63.37;94901.53;5029418;28;20025;-71
2023/05/26 06:35:12;;;;;;;8.13;5.60;;;;;;;18.00;63.42;94913.78;5015373;28;20144;-71
2023/05/26 06:37:38;;;;;;;8.13;4.97;;;;;;;17.97;62.96;94916.78;5029456;28;20026;-71
2023/05/26 06:40:04;;;;;;;5.35;4.68;;;;;;;17.90;62.62;94917.59;5029832;28;20038;-72
2023/05/26 06:42:29;;;;;;;9.40;4.68;;;;;;;17.08;66.80;94926.41;5020567;28;20044;-71
2023/05/26 06:44:55;;;;;;;7.45;4.88;;;;;;;17.53;65.09;94919.81;5030353;28;20038;-71
2023/05/26 06:47:23;;;;;;;5.53;4.80;;;;;;;17.57;65.02;94934.22;5011475;28;20495;-70
2023/05/26 06:49:51;;;;;;;6.72;5.05;;;;;;;17.28;65.88;94924.28;5012906;28;20469;-70
2023/05/26 06:52:17;;;;;;;7.85;4.70;;;;;;;17.69;65.25;94920.75;5030337;28;20032;-71
2023/05/26 06:54:42;;;;;;;8.13;6.07;;;;;;;17.67;65.28;94907.78;4996529;28;20053;-70
2023/05/26 06:57:08;;;;;;;6.53;5.53;;;;;;;17.69;64.62;94907.59;5012608;28;20052;-70
2023/05/26 06:59:33;;;;;;;5.50;4.90;;;;;;;17.73;64.57;94901.03;5033346;28;20034;-70
2023/05/26 07:01:59;;;;;;;5.72;5.05;;;;;;;17.81;63.93;94916.81;5032712;28;20041;-70
2023/05/26 07:04:24;;;;;;;5.97;4.68;;;;;;;18.18;63.28;94905.66;5034356;28;20045;-71
2023/05/26 07:06:50;;;;;;;6.05;4.50;;;;;;;18.55;62.96;94909.41;5032627;28;20017;-70
2023/05/26 07:09:15;;;;;;;7.97;4.60;;;;;;;18.80;62.50;94904.03;5032576;28;20073;-71
2023/05/26 07:11:40;;;;;;;7.15;4.43;;;;;;;18.93;60.37;94897.19;5032739;28;20036;-71
2023/05/26 07:14:06;;;;;;;6.40;4.63;;;;;;;18.89;60.64;94898.53;5032762;28;20034;-71
2023/05/26 07:16:31;;;;;;;4.93;4.43;;;;;;;18.61;60.61;94894.75;5032615;28;20029;-71
2023/05/26 07:18:57;;;;;;;5.97;4.72;;;;;;;18.56;60.77;94907.63;5032639;28;20103;-69
2023/05/26 07:21:25;;;;;;;7.30;5.45;;;;;;;18.83;61.13;94912.38;5032435;28;20112;-69
2023/05/26 07:23:50;;;;;;;7.68;5.00;;;;;;;18.77;60.89;94893.84;5016549;28;20037;-69
2023/05/26 07:26:16;;;;;;;6.63;5.93;;;;;;;18.84;60.40;94919.28;5015979;28;20083;-69
2023/05/26 07:28:42;;;;;;;8.52;6.25;;;;;;;19.03;60.37;94914.53;5032427;28;20034;-69
2023/05/26 07:31:07;;;;;;;8.63;5.57;;;;;;;18.91;60.52;94909.69;4999535;28;20025;-70
2023/05/26 07:33:32;;;;;;;6.53;5.32;;;;;;;19.14;60.17;94920.22;5015799;28;20033;-69
2023/05/26 07:35:58;;;;;;;7.60;5.35;;;;;;;19.00;60.75;94920.16;5033469;28;20033;-69
2023/05/26 07:38:23;;;;;;;8.80;6.15;;;;;;;19.16;60.58;94912.94;5015975;28;20037;-70
2023/05/26 07:40:49;;;;;;;10.55;6.18;;;;;;;19.12;60.00;94919.56;5032252;28;20504;-69
2023/05/26 07:43:14;;;;;;;9.52;5.75;;;;;;;18.75;62.04;94910.63;5032028;28;20045;-69
2023/05/26 07:45:40;;;;;;;9.02;6.38;;;;;;;18.91;61.01;94919.41;5032129;28;20037;-69
2023/05/26 07:48:05;;;;;;;7.35;5.78;;;;;;;18.94;61.73;94911.16;5031897;28;20040;-70
2023/05/26 07:50:31;;;;;;;6.55;5.38;;;;;;;18.74;62.02;94911.63;5032049;28;20350;-69
2023/05/26 07:52:56;;;;;;;7.50;5.72;;;;;;;18.77;62.45;94910.44;5018669;28;20025;-69
2023/05/26 07:55:22;;;;;;;7.10;6.00;;;;;;;18.30;64.15;94914.81;5035232;28;20107;-70
2023/05/26 07:57:47;;;;;;;7.75;6.85;;;;;;;18.52;63.87;94909.75;5035049;28;20487;-69
2023/05/26 08:00:13;;;;;;;8.15;7.35;;;;;;;18.67;62.92;94917.75;5051939;28;20063;-69
2023/05/26 08:02:39;;;;;;;9.07;6.72;;;;;;;18.77;61.93;94905.19;5051540;28;20036;-69
2023/05/26 08:05:05;;;;;;;7.82;6.70;;;;;;;19.11;61.04;94906.56;5053322;28;20717;-70
2023/05/26 08:07:30;;;;;;;7.25;6.05;;;;;;;19.49;58.89;94888.97;5034816;28;20078;-70
2023/05/26 08:09:55;;;;;;;6.10;5.50;;;;;;;19.77;58.33;94902.34;5034594;28;20056;-70
2023/05/26 08:12:21;;;;;;;6.45;5.75;;;;;;;19.68;57.63;94898.19;5034783;28;20025;-70
2023/05/26 08:14:48;;;;;;;7.40;5.60;;;;;;;19.82;57.50;94893.91;5018469;28;20072;-70
2023/05/26 08:17:13;;;;;;;6.65;5.72;;;;;;;19.60;59.06;94904.31;5034799;28;20029;-70
2023/05/26 08:19:38;;;;;;;8.93;6.47;;;;;;;19.91;58.57;94905.19;5052984;28;20426;-69
2023/05/26 08:22:04;;;;;;;9.15;6.10;;;;;;;19.86;57.90;94898.66;5051163;28;20040;-70
2023/05/26 08:24:29;;;;;;;7.32;5.50;;;;;;;20.13;57.89;94895.53;5051420;28;20091;-70
2023/05/26 08:26:55;;;;;;;7.63;5.72;;;;;;;20.33;56.15;94891.31;5052334;28;20033;-70
2023/05/26 08:29:22;;;;;;;6.50;5.50;;;;;;;20.41;55.76;94888.56;5051373;28;20044;-70
2023/05/26 08:31:48;;;;;;;7.03;6.32;;;;;;;20.47;56.89;94881.72;5034807;28;20032;-70
2023/05/26 08:34:13;;;;;;;8.95;6.55;;;;;;;19.66;59.54;94886.19;5034649;28;20041;-70
2023/05/26 08:36:39;;;;;;;6.78;5.57;;;;;;;20.45;57.51;94881.13;5034387;28;20518;-69
2023/05/26 08:39:04;;;;;;;6.63;5.15;;;;;;;20.49;56.42;94874.44;5052138;28;20481;-69
2023/05/26 08:41:35;;;;;;;6.50;5.50;;;;;;;20.58;55.47;94869.91;5052040;28;20048;-69
2023/05/26 08:44:01;;;;;;;6.93;5.53;;;;;;;20.42;55.74;94869.13;5050921;28;20033;-69
2023/05/26 08:46:26;;;;;;;7.60;5.80;;;;;;;20.45;55.87;94862.66;5050828;28;20028;-69
2023/05/26 08:48:53;;;;;;;6.78;5.00;;;;;;;20.64;54.75;94856.75;5034242;28;20068;-70
2023/05/26 08:51:18;;;;;;;8.65;5.85;;;;;;;20.74;56.13;94862.56;5034536;28;20383;-69
2023/05/26 08:53:44;;;;;;;7.18;4.70;;;;;;;20.75;53.54;94866.00;5034048;28;20048;-70
2023/05/26 08:56:10;;;;;;;6.50;5.00;;;;;;;20.93;55.40;94862.94;5034052;28;20104;-70
2023/05/26 08:58:35;;;;;;;5.65;4.97;;;;;;;21.02;54.11;94868.91;5033881;28;20040;-70
2023/05/26 09:01:01;;;;;;;7.25;5.20;;;;;;;20.97;53.86;94867.63;5050536;28;20411;-69
2023/05/26 09:03:27;;;;;;;6.35;4.80;;;;;;;21.02;53.62;94869.72;5033850;28;20037;-70
2023/05/26 09:05:53;;;;;;;6.57;5.10;;;;;;;21.08;53.70;94874.22;5050488;28;20028;-70
2023/05/26 09:08:18;;;;;;;7.88;4.88;;;;;;;20.98;53.74;94864.00;5051503;28;20033;-70
2023/05/26 09:10:44;;;;;;;6.72;5.38;;;;;;;21.06;54.80;94870.16;5033865;28;20103;-70
2023/05/26 09:13:12;;;;;;;6.85;4.80;;;;;;;21.18;53.30;94864.16;5033589;28;20074;-70
2023/05/26 09:15:38;;;;;;;5.93;4.28;;;;;;;21.09;54.50;94860.03;5050314;28;20506;-70
2023/05/26 09:18:08;;;;;;;5.80;3.25;;;;;;;20.49;50.42;94853.34;5017046;28;20033;-70
2023/05/26 09:20:34;;;;;;;4.35;3.38;;;;;;;20.43;52.54;94856.72;5051316;28;20078;-70
2023/05/26 09:22:59;;;;;;;4.47;3.50;;;;;;;20.40;51.63;94855.28;5049588;28;20403;-69
2023/05/26 09:25:30;;;;;;;3.92;3.30;;;;;;;20.39;52.81;94858.91;5033648;28;20033;-70
2023/05/26 09:28:05;;;;;;;6.13;3.13;;;;;;;20.25;53.35;94857.13;5049989;28;20036;-70
2023/05/26 09:30:46;;;;;;;5.15;3.08;;;;;;;20.40;52.28;94847.38;5051275;28;20029;-70
2023/05/26 09:33:16;;;;;;;3.53;3.10;;;;;;;20.63;50.70;94859.59;5018068;28;20116;-71
2023/05/26 09:35:45;;;;;;;5.57;2.85;;;;;;;20.48;51.96;94855.16;5050046;28;20053;-69
2023/05/26 09:38:13;;;;;;;4.60;3.10;;;;;;;20.48;51.78;94863.09;5049832;28;20025;-70
2023/05/26 09:40:42;;;;;;;4.25;3.20;;;;;;;20.79;52.14;94858.56;5051084;28;20090;-70
2023/05/26 09:43:07;;;;;;;5.28;3.38;;;;;;;20.86;52.57;94847.03;5050881;28;20029;-70
2023/05/26 09:45:34;;;;;;;6.57;3.60;;;;;;;21.10;51.80;94851.09;5033357;28;20039;-70
2023/05/26 09:48:00;;;;;;;3.97;3.17;;;;;;;21.29;51.67;94843.53;5033271;28;20025;-70
2023/05/26 09:50:25;;;;;;;3.70;3.10;;;;;;;21.44;50.34;94836.34;5049724;28;20071;-69
2023/05/26 09:52:51;;;;;;;6.43;3.50;;;;;;;21.53;49.94;94826.41;5033162;28;20096;-70
2023/05/26 09:55:19;;;;;;;7.22;3.17;;;;;;;21.71;49.02;94844.44;5016788;28;20045;-70
2023/05/26 09:57:48;;;;;;;4.38;3.17;;;;;;;22.01;47.60;94834.41;5049601;28;20083;-70
2023/05/26 10:00:17;;;;;;;6.63;3.10;;;;;;;22.01;47.89;94837.88;5033596;28;20487;-70
2023/05/26 10:02:43;;;;;;;4.95;3.15;;;;;;;21.96;46.79;94842.13;5033108;28;20493;-69
2023/05/26 10:05:09;;;;;;;3.83;3.25;;;;;;;22.05;48.36;94838.28;5016695;28;20132;-70
2023/05/26 10:07:35;;;;;;;3.58;2.70;;;;;;;21.79;46.62;94839.81;5049435;28;20090;-70
2023/05/26 10:10:01;;;;;;;4.50;2.90;;;;;;;21.89;48.22;94838.63;5032744;28;20474;-70
2023/05/26 10:12:31;;;;;;;5.00;3.00;;;;;;;22.06;45.49;94829.31;5032983;28;20028;-70
2023/05/26 10:14:57;;;;;;;4.43;3.70;;;;;;;21.48;46.24;94820.91;5016669;28;20037;-70
2023/05/26 10:17:22;;;;;;;3.88;3.20;;;;;;;21.90;46.96;94824.38;5049390;28;20032;-70
2023/05/26 10:19:48;;;;;;;8.20;3.78;;;;;;;22.05;46.47;94827.72;5033118;28;20037;-70
2023/05/26 10:22:33;;;;;;;4.40;2.92;;;;;;;22.08;47.69;94824.66;5049312;28;20032;-70
2023/05/26 10:25:06;;;;;;;5.13;3.13;;;;;;;22.11;46.40;94821.63;5049141;28;20048;-70
2023/05/26 10:27:46;;;;;;;4.97;3.15;;;;;;;22.26;47.39;94834.75;5016744;28;20060;-70
2023/05/26 10:30:15;;;;;;;8.48;5.07;;;;;;;22.07;51.69;94836.28;5049435;28;20044;-70
2023/05/26 10:32:44;;;;;;;8.85;5.10;;;;;;;21.95;52.55;94829.88;5049297;28;20112;-70
2023/05/26 10:35:55;;;;;;;9.18;5.68;;;;;;;21.83;54.50;94821.72;5020493;28;20415;-70
2023/05/26 10:38:25;;;;;;;9.20;5.45;;;;;;;21.64;54.55;94836.44;5036968;28;20053;-69
2023/05/26 10:40:51;;;;;;;6.15;4.90;;;;;;;21.13;54.30;94829.59;5037098;28;20223;-68
2023/05/26 10:43:23;;;;;;;7.20;4.57;;;;;;;21.08;54.43;94831.97;5053106;28;20515;-68
2023/05/26 10:46:02;;;;;;;5.30;4.40;;;;;;;20.90;55.14;94836.91;5036652;28;20041;-68
2023/05/26 10:48:41;;;;;;;5.45;3.53;;;;;;;20.69;54.47;94837.72;5036838;28;20118;-68
2023/05/26 10:51:15;;;;;;;4.13;3.50;;;;;;;20.57;54.50;94828.69;5037152;28;20025;-68
2023/05/26 10:53:42;;;;;;;8.88;3.60;;;;;;;20.39;54.83;94837.00;5052944;28;20112;-68
2023/05/26 10:56:11;;;;;;;5.70;3.45;;;;;;;20.30;55.84;94823.09;5052945;28;20096;-68
2023/05/26 10:58:37;;;;;;;8.98;3.72;;;;;;;20.55;55.78;94834.16;5052869;28;20037;-68
2023/05/26 11:01:11;;;;;;;6.65;3.30;;;;;;;20.46;55.49;94832.63;5052731;28;20052;-69
2023/05/26 11:03:40;;;;;;;4.20;3.40;;;;;;;20.43;56.12;94820.63;5036901;28;20405;-68
2023/05/26 11:06:06;;;;;;;8.48;3.63;;;;;;;20.65;56.35;94825.94;5036507;28;20024;-68
2023/05/26 11:08:38;;;;;;;5.45;3.58;;;;;;;20.77;56.34;94824.41;5036032;28;20029;-68
2023/05/26 11:11:08;;;;;;;4.38;3.60;;;;;;;20.62;55.82;94826.31;5054056;28;20053;-68
2023/05/26 11:13:41;;;;;;;7.53;4.00;;;;;;;20.36;56.26;94818.91;5052675;28;20044;-68
2023/05/26 11:16:12;;;;;;;4.78;3.20;;;;;;;20.44;52.42;94814.31;5052577;28;20126;-68
2023/05/26 11:18:39;;;;;;;5.22;3.72;;;;;;;20.41;54.84;94819.97;5053823;28;20041;-68
2023/05/26 11:21:05;;;;;;;8.10;3.47;;;;;;;20.51;56.62;94820.50;5052864;28;20036;-68
2023/05/26 11:23:30;;;;;;;5.20;3.63;;;;;;;20.39;55.77;94821.16;5053629;28;20037;-68
2023/05/26 11:25:56;;;;;;;4.85;3.42;;;;;;;20.44;55.16;94819.59;5052471;28;20502;-68
2023/05/26 11:28:23;;;;;;;4.75;3.20;;;;;;;20.30;54.33;94817.81;5052255;28;20513;-68
2023/05/26 11:30:48;;;;;;;4.30;3.63;;;;;;;20.24;55.06;94811.47;5052280;28;20104;-68
2023/05/26 11:33:14;;;;;;;3.40;2.88;;;;;;;20.46;54.94;94807.03;5035561;28;20533;-68